Latest Weather Observations for Badgerys Creek

IDN60801

Issued at 2:05 pm EST Tuesday 2 September 2014 (issued every 30 minutes, with the page automatically refreshed every 10 minutes)

About weather observations | Map of weather stations | Latest weather observations for NSW | Other Formats
Station Details ID: 067108 Name: BADGERYS CREEK AWS Lat: -33.90 Lon: 150.73 Height: 81.2 m
Data from the previous 72 hours. | See also: Recent months at Badgerys Creek
Date/Time
EST
Temp
°C
App
Temp
°C
Dew
Point
Rel
Hum
%
Delta-T
°C
Wind Press
QNH
hPa
Press
MSL
hPa
Rain
since 9 am
mm
Dir
 
Spd
km/h
Gust
km/h
Spd
kts
Gust
kts
02/02:00pm 16.2 9.6 6.1 51 4.9 SW 30 39 16 21 1007.7 1007.6 0.0
02/01:30pm 15.9 9.7 6.1 52 4.8 SW 28 39 15 21 1007.7 - 0.0
02/01:00pm 15.6 9.8 6.3 54 4.5 SW 26 37 14 20 1008.0 1007.9 0.0
02/12:30pm 15.7 10.4 6.7 55 4.4 WSW 24 35 13 19 1008.4 - 0.0
02/12:00pm 15.4 11.3 6.4 55 4.4 SW 17 26 9 14 1008.8 1008.7 0.0
02/11:30am 14.7 10.2 7.0 60 3.8 WSW 20 28 11 15 1009.3 - 0.0
02/11:00am 14.9 10.6 7.0 59 3.9 SSW 19 24 10 13 1009.2 1009.1 0.0
02/10:30am 15.8 11.5 7.8 59 4.0 SSW 20 24 11 13 1009.4 - 0.0
02/10:00am 15.0 10.7 7.1 59 3.9 WSW 19 24 10 13 1009.4 1009.3 0.0
02/09:30am 14.5 10.3 7.3 62 3.6 WSW 19 20 10 11 1009.2 - 0.0
02/09:00am 16.1 13.1 7.6 57 4.3 W 13 19 7 10 1009.1 1009.0 0.0
02/08:30am 14.6 11.3 7.9 64 3.3 WSW 15 22 8 12 1009.6 - 0.0
02/08:00am 13.9 12.7 9.7 76 2.2 W 6 7 3 4 1009.6 1009.5 0.0
02/07:30am 13.1 11.8 7.8 70 2.6 W 4 7 2 4 1009.9 - 0.0
02/07:00am 12.5 12.0 8.0 74 2.2 CALM 0 2 0 1 1009.5 1009.4 0.0
02/06:30am 13.6 13.0 7.2 65 3.1 CALM 0 2 0 1 1009.2 - 0.0
02/06:00am 13.5 12.7 6.6 63 3.3 CALM 0 0 0 0 1009.0 1008.9 0.0
02/05:30am 13.4 11.9 7.0 65 3.1 W 4 6 2 3 1009.0 - 0.0
02/05:00am 13.2 10.9 7.6 69 2.8 W 9 13 5 7 1009.2 1009.1 0.0
02/04:30am 13.8 11.0 7.1 64 3.3 SW 11 15 6 8 1009.0 - 0.0
02/04:00am 14.5 10.6 7.1 61 3.6 SW 17 22 9 12 1009.0 1008.9 0.0
02/03:30am 15.0 10.5 7.1 59 3.9 SW 20 30 11 16 1008.9 - 0.0
02/03:00am 12.8 10.0 8.7 76 2.1 SW 13 19 7 10 1009.1 1009.0 0.0
02/02:30am 13.4 11.9 8.5 72 2.5 NNW 6 9 3 5 1008.9 - 0.0
02/02:00am 13.3 11.6 8.4 72 2.5 W 7 11 4 6 1009.1 1009.0 0.0
02/01:30am 14.1 12.5 7.9 66 3.1 N 6 7 3 4 1009.1 - 0.0
02/01:00am 14.5 12.8 7.5 63 3.5 N 6 9 3 5 1009.3 1009.2 0.0
02/12:30am 14.7 12.4 7.5 62 3.6 N 9 11 5 6 1009.5 - 0.0
02/12:00am 15.0 12.3 7.5 61 3.7 N 11 13 6 7 1009.8 1009.7 0.0
 
Date/Time
EST
Temp
°C
App
Temp
°C
Dew
Point
Rel
Hum
%
Delta-T
°C
Wind Press
QNH
hPa
Press
MSL
hPa
Rain
since 9 am
mm
Dir
 
Spd
km/h
Gust
km/h
Spd
kts
Gust
kts
01/11:30pm 15.2 12.5 7.5 60 3.8 N 11 13 6 7 1010.4 - 0.0
01/11:00pm 15.1 12.5 7.9 62 3.6 N 11 13 6 7 1010.6 1010.5 0.0
01/10:30pm 16.0 13.0 7.5 57 4.3 N 13 15 7 8 1010.8 - 0.0
01/10:00pm 16.2 12.7 7.4 56 4.4 N 15 17 8 9 1010.8 1010.7 0.0
01/09:30pm 16.3 13.3 7.5 56 4.4 N 13 17 7 9 1011.1 - 0.0
01/09:00pm 15.2 13.0 7.7 61 3.8 NNW 9 13 5 7 1011.3 1011.2 0.0
01/08:30pm 16.8 14.8 6.3 50 5.2 N 6 7 3 4 1011.5 - 0.0
01/08:00pm 17.7 14.3 5.9 46 5.8 NNW 13 17 7 9 1011.8 1011.7 0.0
01/07:30pm 17.9 14.1 5.8 45 5.9 NNW 15 17 8 9 1011.6 - 0.0
01/07:00pm 17.4 14.0 5.7 46 5.7 NW 13 17 7 9 1011.3 1011.2 0.0
01/06:30pm 19.4 14.6 5.5 40 6.8 NW 20 30 11 16 1011.1 - 0.0
01/06:00pm 19.2 14.7 6.3 43 6.4 WNW 19 24 10 13 1010.9 1010.8 0.0
01/05:30pm 19.3 15.0 7.1 45 6.2 WNW 19 24 10 13 1010.5 - 0.0
01/05:00pm 19.8 17.1 7.2 44 6.4 NW 11 17 6 9 1010.5 1010.4 0.0
01/04:30pm 20.4 18.3 8.4 46 6.3 N 9 13 5 7 1010.4 - 0.0
01/04:00pm 21.5 18.0 7.3 40 7.3 NNW 15 24 8 13 1010.3 1010.2 0.0
01/03:30pm 21.8 17.6 7.6 40 7.4 NNW 19 26 10 14 1010.3 - 0.0
01/03:00pm 22.8 20.7 9.9 44 7.1 NNE 11 19 6 10 1010.5 1010.4 0.0
01/02:30pm 21.7 18.8 9.6 46 6.5 NNE 15 22 8 12 1010.6 - 0.0
01/02:00pm 22.3 21.2 10.8 48 6.4 N 7 11 4 6 1011.2 1011.1 0.0
01/01:30pm 21.6 20.2 11.0 51 5.9 NNE 9 17 5 9 1011.9 - 0.0
01/01:00pm 21.2 19.6 10.1 49 6.0 NNE 9 15 5 8 1012.4 1012.3 0.0
01/12:30pm 20.4 18.7 9.9 51 5.7 N 9 15 5 8 1013.2 - 0.0
01/12:00pm 19.9 18.2 9.8 52 5.4 N 9 13 5 7 1013.8 1013.7 0.0
01/11:30am 19.0 17.4 10.3 57 4.7 NNE 9 19 5 10 1014.2 - 0.0
01/11:00am 18.0 16.4 11.6 66 3.5 N 11 15 6 8 1014.6 1014.6 0.0
01/10:30am 16.9 15.7 11.6 71 2.9 NNE 9 13 5 7 1015.1 - 0.0
01/10:00am 15.6 14.6 11.0 74 2.5 N 7 11 4 6 1016.0 1016.0 0.0
01/09:30am 14.6 14.1 10.6 77 2.1 WSW 4 7 2 4 1016.4 - 0.0
01/09:00am 13.2 12.7 10.6 84 1.4 WSW 4 6 2 3 1016.9 1017.0 0.0
01/08:30am 11.6 12.1 11.6 100 0.0 CALM 0 0 0 0 1017.1 - 0.0
01/08:00am 9.6 9.5 9.6 100 0.0 CALM 0 0 0 0 1017.5 1017.5 0.0
01/07:30am 9.0 8.0 9.0 100 0.0 WSW 4 6 2 3 1017.1 - 0.0
01/07:00am 6.8 6.0 6.7 99 0.0 CALM 0 6 0 3 1017.0 1017.1 0.0
01/06:30am 7.1 6.4 7.0 99 0.0 CALM 0 4 0 2 1016.8 - 0.0
01/06:00am 7.2 6.5 7.1 99 0.0 CALM 0 0 0 0 1016.6 1016.7 0.0
01/05:30am 7.6 7.0 7.5 99 0.0 CALM 0 0 0 0 1016.5 - 0.0
01/05:00am 6.8 5.3 6.7 99 0.0 WSW 4 6 2 3 1016.4 1016.5 0.0
01/04:30am 7.2 5.8 7.1 99 0.0 WSW 4 6 2 3 1016.2 - 0.0
01/04:00am 7.2 5.4 7.1 99 0.0 WSW 6 6 3 3 1016.1 1016.2 0.0
01/03:30am 7.3 6.3 7.2 99 0.0 WSW 2 6 1 3 1016.1 - 0.0
01/03:00am 8.6 8.3 8.5 99 0.0 CALM 0 0 0 0 1016.1 1016.2 0.0
01/02:30am 9.0 8.4 8.9 99 0.0 SW 2 4 1 2 1016.4 - 0.0
01/02:00am 8.7 7.2 8.6 99 0.0 SW 6 7 3 4 1016.8 1016.9 0.0
01/01:30am 9.0 7.6 8.9 99 0.0 WSW 6 7 3 4 1017.1 - 0.0
01/01:00am 8.8 7.8 8.7 99 0.0 WSW 4 4 2 2 1017.3 1017.4 0.0
01/12:30am 9.5 9.0 9.4 99 0.0 WSW 2 4 1 2 1017.7 - 0.0
01/12:00am 10.0 9.6 9.9 99 0.1 WSW 2 4 1 2 1017.9 1017.9 0.0
 
Date/Time
EST
Temp
°C
App
Temp
°C
Dew
Point
Rel
Hum
%
Delta-T
°C
Wind Press
QNH
hPa
Press
MSL
hPa
Rain
since 9 am
mm
Dir
 
Spd
km/h
Gust
km/h
Spd
kts
Gust
kts
31/11:30pm 10.4 9.4 10.2 99 0.1 WSW 6 7 3 4 1018.1 - 0.0
31/11:00pm 10.5 9.5 10.3 99 0.1 WSW 6 7 3 4 1018.3 1018.3 0.0
31/10:30pm 10.0 8.8 9.7 98 0.2 ESE 6 7 3 4 1018.3 - 0.0
31/10:00pm 10.4 9.7 9.9 97 0.3 ESE 4 6 2 3 1018.5 1018.5 0.0
31/09:30pm 11.0 10.3 10.2 95 0.4 ESE 4 4 2 2 1018.4 - 0.0
31/09:00pm 11.5 10.8 10.1 91 0.7 ESE 4 4 2 2 1018.5 1018.5 0.0
31/08:30pm 12.5 12.0 10.7 89 0.9 ESE 4 4 2 2 1018.5 - 0.0
31/08:00pm 13.0 12.2 11.1 88 1.0 ESE 6 6 3 3 1018.6 1018.6 0.0
31/07:30pm 13.1 12.2 10.5 84 1.4 ESE 6 6 3 3 1018.2 - 0.0
31/07:00pm 13.8 13.2 10.4 80 1.8 ESE 4 6 2 3 1017.8 1017.8 0.0
31/06:30pm 14.6 13.4 10.4 76 2.2 E 7 11 4 6 1017.3 - 0.0
31/06:00pm 15.3 13.8 10.7 74 2.4 ESE 9 13 5 7 1017.0 1017.1 0.0
31/05:30pm 16.5 14.7 11.0 70 3.0 E 11 17 6 9 1016.7 - 0.0
31/05:00pm 17.7 14.5 11.3 66 3.5 E 19 26 10 14 1016.5 1016.6 0.0
31/04:30pm 19.9 18.9 8.9 49 5.8 ENE 4 7 2 4 1016.3 - 0.0
31/04:00pm 21.2 20.0 8.1 43 6.8 ENE 4 7 2 4 1016.3 1016.4 0.0
31/03:30pm 21.5 21.2 8.7 44 6.8 CALM 0 6 0 3 1016.4 - 0.0
31/03:00pm 20.6 18.9 8.3 45 6.4 S 7 13 4 7 1016.6 1016.7 0.0
31/02:30pm 21.4 20.3 8.3 43 6.9 E 4 11 2 6 1016.8 - 0.0
31/02:00pm 20.8 19.3 8.4 45 6.5 ENE 6 9 3 5 1017.2 1017.3 0.0
31/01:30pm 20.6 19.6 8.9 47 6.2 SW 4 7 2 4 1017.8 - 0.0
31/01:00pm 20.5 19.5 8.8 47 6.2 NW 4 9 2 5 1018.2 1018.2 0.0
31/12:30pm 19.4 18.8 9.0 51 5.5 S 2 9 1 5 1018.8 - 0.0
31/12:00pm 19.4 18.0 9.0 51 5.5 SSW 6 13 3 7 1019.3 1019.3 0.0
31/11:30am 18.7 17.5 9.5 55 4.9 SSW 6 9 3 5 1019.8 - 0.0
31/11:00am 18.2 17.1 10.1 59 4.3 WSW 6 13 3 7 1020.2 1020.2 0.0
31/10:30am 17.8 16.8 10.9 64 3.7 W 7 13 4 7 1020.6 - 0.0
31/10:00am 16.7 15.1 10.1 65 3.5 WSW 9 15 5 8 1020.9 1020.9 0.0
31/09:30am 15.9 13.5 10.0 68 3.1 W 13 19 7 10 1021.2 - 0.0
31/09:00am 14.8 11.9 9.6 71 2.7 WSW 15 19 8 10 1021.4 1021.4 0.0
31/08:30am 13.7 10.4 9.4 75 2.2 WSW 17 20 9 11 1021.5 - 0.0
31/08:00am 12.6 9.6 9.4 81 1.6 SW 15 19 8 10 1021.4 1021.4 0.0
31/07:30am 11.4 8.7 8.8 84 1.3 WSW 13 19 7 10 1021.4 - 0.0
31/07:00am 10.1 7.6 8.2 88 0.9 SW 11 13 6 7 1021.3 1021.3 0.0
31/06:30am 9.9 6.6 8.0 88 0.9 WSW 15 17 8 9 1021.1 - 0.0
31/06:00am 10.1 6.8 8.0 87 1.0 WSW 15 19 8 10 1020.9 1020.9 0.0
31/05:30am 10.0 7.0 7.9 87 1.0 WSW 13 15 7 8 1020.8 - 0.0
31/05:00am 10.1 7.2 8.2 88 0.9 WSW 13 17 7 9 1020.7 1020.7 0.0
31/04:30am 10.2 7.3 8.1 87 1.0 WSW 13 15 7 8 1020.6 - 0.0
31/04:00am 10.3 7.0 8.2 87 1.0 WSW 15 17 8 9 1020.7 1020.7 0.0
31/03:30am 10.2 7.3 8.1 87 1.0 SW 13 15 7 8 1020.7 - 0.0
31/03:00am 10.7 7.5 8.5 86 1.1 WSW 15 17 8 9 1020.9 1020.9 0.0
31/02:30am 10.7 7.8 8.3 85 1.2 WSW 13 15 7 8 1021.0 - 0.0
31/02:00am 11.3 8.9 8.7 84 1.3 SW 11 15 6 8 1021.0 1021.0 0.0
31/01:30am 12.0 9.7 9.0 82 1.5 SW 11 15 6 8 1021.4 - 0.0
31/01:00am 12.4 10.5 9.2 81 1.6 SW 9 13 5 7 1021.5 1021.5 0.0
31/12:30am 12.3 10.1 9.3 82 1.5 SW 11 13 6 7 1021.7 - 0.0
31/12:00am 12.5 10.7 9.3 81 1.6 SW 9 11 5 6 1021.9 1021.9 0.0
 
Date/Time
EST
Temp
°C
App
Temp
°C
Dew
Point
Rel
Hum
%
Delta-T
°C
Wind Press
QNH
hPa
Press
MSL
hPa
Rain
since 9 am
mm
Dir
 
Spd
km/h
Gust
km/h
Spd
kts
Gust
kts
30/11:30pm 12.6 10.7 9.2 80 1.7 SW 9 11 5 6 1022.1 - 0.0
30/11:00pm 12.8 10.6 9.4 80 1.7 SW 11 13 6 7 1022.2 1022.2 0.0
30/10:30pm 13.0 10.8 9.4 79 1.8 SW 11 11 6 6 1022.3 - 0.0
30/10:00pm 13.7 11.1 9.4 75 2.2 SW 13 17 7 9 1022.4 1022.4 0.0
30/09:30pm 14.0 11.4 9.2 73 2.5 SSW 13 19 7 10 1022.5 - 0.0
30/09:00pm 14.0 11.4 9.4 74 2.4 SSW 13 17 7 9 1022.5 1022.5 0.0
30/08:30pm 14.3 11.7 9.5 73 2.5 SSW 13 20 7 11 1022.7 - 0.0
30/08:00pm 14.5 12.3 9.5 72 2.6 SSW 11 17 6 9 1022.6 1022.6 0.0
30/07:30pm 14.5 12.8 9.7 73 2.5 SSW 9 13 5 7 1022.6 - 0.0
30/07:00pm 15.0 12.1 9.8 71 2.7 SSW 15 20 8 11 1022.3 1022.3 0.0
30/06:30pm 15.0 12.6 10.2 73 2.5 S 13 22 7 12 1022.1 - 0.0
30/06:00pm 15.0 13.9 10.6 75 2.3 S 7 11 4 6 1022.1 1022.1 0.0
30/05:30pm 15.4 14.3 10.6 73 2.5 S 7 11 4 6 1022.1 - 0.0
30/05:00pm 15.6 13.7 10.6 72 2.6 S 11 15 6 8 1022.0 1022.0 0.0
30/04:30pm 15.8 13.0 10.1 69 3.0 S 15 20 8 11 1021.9 - 0.0
30/04:00pm 15.9 14.0 10.4 70 2.9 S 11 13 6 7 1021.9 1021.9 0.0
30/03:30pm 15.9 12.2 10.2 69 3.0 SW 20 33 11 18 1022.0 - 0.0
30/03:00pm 16.5 13.1 10.6 68 3.1 SW 19 26 10 14 1022.0 1022.0 0.0
30/02:30pm 16.8 13.2 10.6 67 3.3 SSW 20 30 11 16 1022.2 - 0.0

Other Formats:

Comma delimited format used in spreadsheet applications
http://www.bom.gov.au/fwo/IDN60801/IDN60801.94752.axf

JavaScript Object Notation format (JSON) in row-major order
http://www.bom.gov.au/fwo/IDN60801/IDN60801.94752.json